createdAt,value
2022-09-28T00:03:52.309Z,98586.72
2022-09-28T00:13:53.666Z,98568.56
2022-09-28T00:24:13.172Z,98530.94
2022-09-28T00:34:14.464Z,98506.31
2022-09-28T00:44:15.788Z,98511.44
2022-09-28T00:54:17.051Z,98489.34
2022-09-28T01:04:18.311Z,98469.47
2022-09-28T01:14:20.714Z,98446.69
2022-09-28T01:24:23.097Z,98430.88
2022-09-28T01:34:24.397Z,98424.47
2022-09-28T01:44:25.659Z,98409.47
2022-09-28T01:54:26.948Z,98423.31
2022-09-28T02:04:28.569Z,98421.97
2022-09-28T02:14:29.838Z,98414.91
2022-09-28T02:24:31.113Z,98413.22
2022-09-28T02:34:33.309Z,98400.63
2022-09-28T02:44:34.631Z,98403.28
2022-09-28T02:54:35.911Z,98380.97
2022-09-28T03:04:37.198Z,98371.28
2022-09-28T03:14:38.512Z,98378.56
2022-09-28T03:24:39.745Z,98377.84
2022-09-28T03:34:41.077Z,98390.28
2022-09-28T03:44:42.349Z,98384.97
2022-09-28T03:54:48.341Z,98383.50
2022-09-28T04:04:50.440Z,98393.63
2022-09-28T04:14:51.700Z,98386.03
2022-09-28T04:24:53.072Z,98401.72
2022-09-28T04:34:54.866Z,98405.94
2022-09-28T04:44:57.990Z,98404.31
2022-09-28T04:54:59.306Z,98401.97
2022-09-28T05:05:00.925Z,98415.09
2022-09-28T05:15:02.240Z,98419.47
2022-09-28T05:25:03.522Z,98420.19
2022-09-28T05:35:06.222Z,98426.41
2022-09-28T05:45:07.689Z,98440.38
2022-09-28T05:55:08.971Z,98437.38
2022-09-28T06:05:10.240Z,98446.91
2022-09-28T06:15:11.533Z,98462.06
2022-09-28T06:25:12.869Z,98476.28
2022-09-28T06:35:15.489Z,98481.91
2022-09-28T06:45:20.057Z,98502.44
2022-09-28T06:55:21.414Z,98506.34
2022-09-28T07:05:27.374Z,98511.69
2022-09-28T07:15:29.451Z,98526.38
2022-09-28T07:25:31.584Z,98539.06
2022-09-28T07:35:35.587Z,98540.19
2022-09-28T07:45:38.435Z,98556.19
2022-09-28T07:55:39.862Z,98576.38
2022-09-28T08:05:42.899Z,98583.03
2022-09-28T08:15:44.272Z,98591.13
2022-09-28T08:25:46.935Z,98608.38
2022-09-28T08:35:48.304Z,98606.31
2022-09-28T08:45:49.633Z,98629.78
2022-09-28T08:55:50.982Z,98626.97
2022-09-28T09:05:52.258Z,98627.81
2022-09-28T09:15:55.194Z,98644.09
2022-09-28T09:25:56.540Z,98644.13
2022-09-28T09:35:58.400Z,98652.06
2022-09-28T09:45:59.739Z,98656.09
2022-09-28T09:56:01.108Z,98650.19
2022-09-28T10:06:02.526Z,98653.03
2022-09-28T10:16:04.012Z,98658.19
2022-09-28T10:26:05.219Z,98652.97
2022-09-28T10:36:06.754Z,98654.63
2022-09-28T10:46:08.210Z,98651.59
2022-09-28T10:56:09.560Z,98648.16
2022-09-28T11:06:10.839Z,98648.56
2022-09-28T11:16:12.210Z,98647.94
2022-09-28T11:26:18.305Z,98637.31
2022-09-28T11:36:20.141Z,98647.44
2022-09-28T11:46:21.522Z,98645.28
2022-09-28T11:56:22.942Z,98640.66
2022-09-28T12:06:24.232Z,98637.59
2022-09-28T12:17:00.395Z,98642.78
2022-09-28T12:26:46.956Z,98639.06
2022-09-28T12:36:48.232Z,98629.88
2022-09-28T12:46:49.651Z,98627.81
2022-09-28T12:56:50.886Z,98623.00
2022-09-28T13:06:52.200Z,98619.91
2022-09-28T13:16:56.153Z,98606.13
2022-09-28T13:27:01.529Z,98609.00
2022-09-28T13:37:02.841Z,98616.47
2022-09-28T13:47:04.140Z,98625.94
2022-09-28T13:57:06.405Z,98623.78
2022-09-28T14:07:07.613Z,98626.00
2022-09-28T14:17:08.836Z,98623.84
2022-09-28T14:27:10.168Z,98628.09
2022-09-28T14:37:29.947Z,98630.84
2022-09-28T14:47:31.225Z,98656.56
2022-09-28T14:57:32.498Z,98663.81
2022-09-28T15:07:35.750Z,98662.53
2022-09-28T15:17:39.830Z,98667.84
2022-09-28T15:27:41.452Z,98664.41
2022-09-28T15:37:43.459Z,98662.22
2022-09-28T15:47:44.902Z,98668.44
2022-09-28T15:57:47.458Z,98690.56
2022-09-28T16:07:53.801Z,98695.88
2022-09-28T16:17:57.176Z,98689.03
2022-09-28T16:27:59.202Z,98697.16
2022-09-28T16:38:00.932Z,98708.56
2022-09-28T16:48:03.636Z,98718.63
2022-09-28T16:58:05.901Z,98712.97
2022-09-28T17:08:07.151Z,98711.47
2022-09-28T17:18:08.612Z,98721.47
2022-09-28T17:28:09.899Z,98726.94
2022-09-28T17:38:12.192Z,98743.13
2022-09-28T17:48:15.678Z,98742.44
2022-09-28T17:58:16.995Z,98750.19
2022-09-28T18:08:18.232Z,98753.81
2022-09-28T18:18:19.757Z,98761.94
2022-09-28T18:28:24.586Z,98767.19
2022-09-28T18:38:27.114Z,98779.47
2022-09-28T18:48:29.715Z,98790.84
2022-09-28T18:58:31.060Z,98816.28
2022-09-28T19:08:33.371Z,98828.22
2022-09-28T19:18:34.871Z,98836.28
2022-09-28T19:28:36.441Z,98831.72
2022-09-28T19:38:37.729Z,98819.81
2022-09-28T19:48:41.419Z,98839.41
2022-09-28T19:58:43.447Z,98854.50
2022-09-28T20:08:44.899Z,98862.69
2022-09-28T20:18:51.343Z,98864.28
2022-09-28T20:28:52.574Z,98864.09
2022-09-28T20:38:53.878Z,98863.41
2022-09-28T20:48:56.588Z,98865.47
2022-09-28T20:58:57.876Z,98881.47
2022-09-28T21:08:59.102Z,98875.41
2022-09-28T21:19:00.407Z,98870.81
2022-09-28T21:29:01.710Z,98872.53
2022-09-28T21:39:07.031Z,98872.19
2022-09-28T21:49:12.628Z,98863.34
2022-09-28T21:59:13.874Z,98865.56
2022-09-28T22:09:15.105Z,98862.63
2022-09-28T22:19:16.397Z,98862.22
2022-09-28T22:29:17.784Z,98868.75
2022-09-28T22:39:19.097Z,98873.47
2022-09-28T22:49:20.443Z,98865.16
2022-09-28T22:59:21.712Z,98865.34
2022-09-28T23:09:22.997Z,98859.94
2022-09-28T23:19:24.305Z,98871.31
2022-09-28T23:29:25.914Z,98865.63
2022-09-28T23:39:27.238Z,98866.63
2022-09-28T23:49:29.634Z,98865.78
2022-09-28T23:59:30.920Z,98874.06
